createdAt,value
2022-08-26T00:01:53.880Z,76.99
2022-08-26T00:04:22.071Z,76.59
2022-08-26T00:06:49.436Z,76.18
2022-08-26T00:09:16.860Z,76.10
2022-08-26T00:11:45.473Z,76.66
2022-08-26T00:14:14.090Z,76.38
2022-08-26T00:16:48.199Z,76.33
2022-08-26T00:19:20.752Z,77.12
2022-08-26T00:21:49.844Z,77.77
2022-08-26T00:24:22.037Z,78.37
2022-08-26T00:26:49.831Z,78.45
2022-08-26T00:29:17.713Z,77.78
2022-08-26T00:31:45.659Z,77.75
2022-08-26T00:34:15.337Z,77.55
2022-08-26T00:36:43.033Z,77.21
2022-08-26T00:39:11.578Z,77.93
2022-08-26T00:41:40.760Z,78.03
2022-08-26T00:44:11.320Z,78.60
2022-08-26T00:46:46.955Z,78.76
2022-08-26T00:49:42.344Z,78.36
2022-08-26T00:52:14.770Z,78.22
2022-08-26T00:54:49.765Z,78.11
2022-08-26T00:57:18.780Z,78.37
2022-08-26T00:59:51.079Z,78.28
2022-08-26T01:02:19.963Z,77.80
2022-08-26T01:04:50.089Z,78.91
2022-08-26T01:07:24.890Z,79.70
2022-08-26T01:09:52.351Z,80.67
2022-08-26T01:12:22.048Z,81.58
2022-08-26T01:14:50.314Z,81.61
2022-08-26T01:17:17.736Z,81.39
2022-08-26T01:20:02.939Z,81.28
2022-08-26T01:23:05.158Z,81.92
2022-08-26T01:25:33.786Z,82.66
2022-08-26T01:28:05.879Z,83.02
2022-08-26T01:30:35.687Z,82.53
2022-08-26T01:33:07.014Z,81.88
2022-08-26T01:35:34.450Z,82.08
2022-08-26T01:38:02.518Z,82.01
2022-08-26T01:40:34.525Z,80.29
2022-08-26T01:43:03.978Z,79.66
2022-08-26T01:45:33.993Z,79.67
2022-08-26T01:48:05.271Z,79.55
2022-08-26T01:50:35.399Z,79.83
2022-08-26T01:53:07.834Z,80.11
2022-08-26T01:55:39.295Z,81.12
2022-08-26T01:58:14.130Z,83.17
2022-08-26T02:00:41.059Z,83.87
2022-08-26T02:03:18.229Z,83.00
2022-08-26T02:06:00.254Z,82.01
2022-08-26T02:08:55.656Z,82.17
2022-08-26T02:11:22.733Z,81.42
2022-08-26T02:13:54.760Z,80.95
2022-08-26T02:16:24.775Z,81.98
2022-08-26T02:18:53.449Z,83.57
2022-08-26T02:21:20.647Z,83.32
2022-08-26T02:26:19.303Z,81.28
2022-08-26T02:29:04.145Z,81.30
2022-08-26T02:31:31.425Z,82.02
2022-08-26T02:34:13.773Z,81.82
2022-08-26T02:36:42.557Z,81.44
2022-08-26T02:39:10.380Z,82.40
2022-08-26T02:41:45.173Z,82.10
2022-08-26T02:44:13.325Z,81.10
2022-08-26T02:46:41.800Z,81.37
2022-08-26T02:49:14.247Z,80.71
2022-08-26T02:51:41.340Z,81.40
2022-08-26T02:54:10.108Z,81.37
2022-08-26T02:56:37.866Z,82.23
2022-08-26T02:59:04.918Z,83.57
2022-08-26T03:01:34.925Z,83.26
2022-08-26T03:04:04.029Z,83.14
2022-08-26T03:06:31.508Z,84.11
2022-08-26T03:09:00.011Z,83.65
2022-08-26T03:11:32.301Z,82.82
2022-08-26T03:14:01.782Z,81.87
2022-08-26T03:16:35.722Z,83.10
2022-08-26T03:19:05.101Z,84.03
2022-08-26T03:21:32.931Z,84.37
2022-08-26T03:24:00.503Z,83.04
2022-08-26T03:26:28.820Z,83.39
2022-08-26T03:29:15.323Z,82.41
2022-08-26T03:31:43.749Z,82.27
2022-08-26T03:34:14.411Z,82.48
2022-08-26T03:36:41.957Z,82.04
2022-08-26T03:39:10.859Z,82.19
2022-08-26T03:41:37.827Z,81.83
2022-08-26T03:44:06.546Z,82.71
2022-08-26T03:46:33.675Z,84.67
2022-08-26T03:49:02.386Z,85.25
2022-08-26T03:53:59.229Z,86.19
2022-08-26T03:56:27.267Z,84.62
2022-08-26T03:58:54.679Z,83.55
2022-08-26T04:01:21.587Z,82.67
2022-08-26T04:03:58.233Z,82.14
2022-08-26T04:06:38.604Z,81.53
2022-08-26T04:09:13.866Z,81.40
2022-08-26T04:11:43.461Z,82.01
2022-08-26T04:14:17.623Z,81.50
2022-08-26T04:16:47.393Z,80.34
2022-08-26T04:19:15.924Z,80.44
2022-08-26T04:21:43.493Z,81.04
2022-08-26T04:24:12.896Z,83.20
2022-08-26T04:26:42.706Z,81.59
2022-08-26T04:29:21.253Z,80.86
2022-08-26T04:31:55.230Z,80.79
2022-08-26T04:34:27.250Z,80.06
2022-08-26T04:36:56.293Z,79.73
2022-08-26T04:39:23.396Z,79.25
2022-08-26T04:41:54.953Z,78.97
2022-08-26T04:44:22.720Z,79.02
2022-08-26T04:46:51.014Z,80.10
2022-08-26T04:49:18.031Z,81.11
2022-08-26T04:51:46.232Z,81.51
2022-08-26T04:54:14.308Z,82.11
2022-08-26T04:56:45.386Z,80.94
2022-08-26T04:59:16.805Z,79.28
2022-08-26T05:01:48.160Z,78.34
2022-08-26T05:04:16.224Z,79.78
2022-08-26T05:06:46.682Z,80.13
2022-08-26T05:09:15.340Z,78.67
2022-08-26T05:11:42.559Z,78.85
2022-08-26T05:14:09.943Z,78.97
2022-08-26T05:16:37.808Z,80.46
2022-08-26T05:19:08.517Z,81.03
2022-08-26T05:21:36.214Z,79.14
2022-08-26T05:24:04.905Z,80.37
2022-08-26T05:26:32.370Z,79.53
2022-08-26T05:28:59.520Z,80.15
2022-08-26T05:31:29.944Z,80.14
2022-08-26T05:33:58.413Z,80.75
2022-08-26T05:36:28.283Z,80.52
2022-08-26T05:38:56.228Z,80.33
2022-08-26T05:41:34.140Z,78.97
2022-08-26T05:44:06.142Z,78.88
2022-08-26T05:46:34.461Z,78.03
2022-08-26T05:49:01.943Z,76.94
2022-08-26T05:51:30.967Z,77.34
2022-08-26T05:53:58.603Z,77.21
2022-08-26T05:56:27.837Z,77.99
2022-08-26T05:58:58.403Z,77.21
2022-08-26T06:01:27.960Z,78.35
2022-08-26T06:03:59.672Z,77.20
2022-08-26T06:06:34.950Z,75.45
2022-08-26T06:09:05.117Z,75.33
2022-08-26T06:11:33.440Z,75.80
2022-08-26T06:14:04.310Z,76.58
2022-08-26T06:16:34.826Z,75.09
2022-08-26T06:19:10.664Z,75.02
2022-08-26T06:21:41.554Z,74.46
2022-08-26T06:24:30.130Z,74.19
2022-08-26T06:27:01.798Z,73.54
2022-08-26T06:29:31.419Z,72.94
2022-08-26T06:31:58.550Z,70.09
2022-08-26T06:34:29.744Z,67.52
2022-08-26T06:37:01.197Z,64.84
2022-08-26T06:39:30.742Z,64.22
2022-08-26T06:41:59.142Z,63.42
2022-08-26T06:44:26.909Z,62.04
2022-08-26T06:46:54.659Z,61.49
2022-08-26T06:49:26.902Z,63.25
2022-08-26T06:51:58.743Z,64.67
2022-08-26T06:54:26.872Z,62.41
2022-08-26T06:56:54.066Z,60.44
2022-08-26T06:59:21.932Z,58.34
2022-08-26T07:01:49.797Z,57.92
2022-08-26T07:04:22.030Z,59.13
2022-08-26T07:06:52.597Z,59.55
2022-08-26T07:09:21.856Z,58.17
2022-08-26T07:11:49.326Z,59.22
2022-08-26T07:14:17.071Z,58.75
2022-08-26T07:16:49.734Z,57.95
2022-08-26T07:19:29.883Z,56.82
2022-08-26T07:21:57.848Z,54.04
2022-08-26T07:24:24.809Z,52.88
2022-08-26T07:26:59.292Z,54.11
2022-08-26T07:29:26.399Z,55.22
2022-08-26T07:31:53.812Z,52.53
2022-08-26T07:34:24.148Z,52.28
2022-08-26T07:36:51.756Z,51.16
2022-08-26T07:39:19.873Z,50.88
2022-08-26T07:41:48.051Z,53.54
2022-08-26T07:44:15.843Z,52.26
2022-08-26T07:46:44.323Z,54.66
2022-08-26T07:49:20.194Z,52.73
2022-08-26T07:51:47.410Z,51.54
2022-08-26T07:54:14.295Z,53.70
2022-08-26T07:56:41.382Z,54.49
2022-08-26T07:59:14.035Z,55.11
2022-08-26T08:01:44.742Z,56.39
2022-08-26T08:04:17.824Z,55.81
2022-08-26T08:06:45.712Z,54.24
2022-08-26T08:09:16.143Z,52.46
2022-08-26T08:11:44.979Z,52.09
2022-08-26T08:14:12.755Z,50.30
2022-08-26T08:16:45.878Z,49.89
2022-08-26T08:19:15.254Z,52.15
2022-08-26T08:21:43.981Z,52.24
2022-08-26T08:24:11.897Z,51.17
2022-08-26T08:26:39.476Z,51.22
2022-08-26T08:29:08.862Z,49.24
2022-08-26T08:31:56.810Z,50.07
2022-08-26T08:34:28.393Z,49.52
2022-08-26T08:36:57.466Z,47.27
2022-08-26T08:39:25.095Z,46.81
2022-08-26T08:42:23.540Z,47.52
2022-08-26T08:44:52.966Z,47.08
2022-08-26T08:47:29.736Z,49.16
2022-08-26T08:50:03.201Z,49.25
2022-08-26T08:52:35.498Z,47.25
2022-08-26T08:55:10.986Z,48.24
2022-08-26T08:58:16.287Z,50.27
2022-08-26T09:00:54.294Z,48.59
2022-08-26T09:03:40.356Z,46.89
2022-08-26T09:06:17.483Z,46.92
2022-08-26T09:08:50.445Z,46.49
2022-08-26T09:11:20.099Z,49.71
2022-08-26T09:13:51.879Z,49.79
2022-08-26T09:16:32.580Z,48.90
2022-08-26T09:19:23.549Z,48.17
2022-08-26T09:21:58.489Z,48.13
2022-08-26T09:24:28.689Z,49.20
2022-08-26T09:26:58.470Z,48.94
2022-08-26T09:29:27.354Z,49.92
2022-08-26T09:32:21.332Z,49.09
2022-08-26T09:34:56.894Z,46.91
2022-08-26T09:40:36.347Z,44.65
2022-08-26T09:43:22.170Z,46.05
2022-08-26T09:45:59.461Z,48.03
2022-08-26T09:48:36.174Z,49.06
2022-08-26T09:51:30.330Z,49.32
2022-08-26T09:54:00.359Z,47.89
2022-08-26T09:56:32.855Z,47.59
2022-08-26T09:59:01.110Z,45.93
2022-08-26T10:01:38.473Z,45.38
2022-08-26T10:04:22.221Z,46.35
2022-08-26T10:06:57.443Z,45.48
2022-08-26T10:09:26.053Z,45.38
2022-08-26T10:12:03.371Z,43.54
2022-08-26T10:14:34.993Z,44.43
2022-08-26T10:17:11.595Z,44.52
2022-08-26T10:19:55.917Z,44.78
2022-08-26T10:22:27.160Z,44.37
2022-08-26T10:24:57.653Z,45.21
2022-08-26T10:27:51.172Z,45.23
2022-08-26T10:30:24.016Z,45.80
2022-08-26T10:32:56.886Z,45.43
2022-08-26T10:35:24.496Z,46.14
2022-08-26T10:37:57.056Z,46.49
2022-08-26T10:40:45.606Z,47.56
2022-08-26T10:43:22.557Z,47.51
2022-08-26T10:45:57.274Z,45.75
2022-08-26T10:48:37.987Z,45.57
2022-08-26T10:51:06.422Z,44.92
2022-08-26T10:53:56.834Z,45.60
2022-08-26T10:56:57.417Z,44.45
2022-08-26T10:59:44.117Z,42.96
2022-08-26T11:02:25.145Z,42.61
2022-08-26T11:04:58.685Z,43.42
2022-08-26T11:07:36.948Z,44.65
2022-08-26T11:10:14.056Z,43.58
2022-08-26T11:12:42.183Z,42.62
2022-08-26T11:15:13.912Z,41.78
2022-08-26T11:17:44.926Z,41.17
2022-08-26T11:20:41.840Z,43.08
2022-08-26T11:23:22.546Z,44.19
2022-08-26T11:25:57.474Z,43.90
2022-08-26T11:28:48.736Z,44.47
2022-08-26T11:31:18.636Z,43.91
2022-08-26T11:33:49.117Z,43.75
2022-08-26T11:37:01.589Z,42.98
2022-08-26T11:39:36.656Z,42.63
2022-08-26T11:42:20.640Z,42.67
2022-08-26T11:44:49.241Z,42.73
2022-08-26T11:47:25.606Z,42.21
2022-08-26T11:50:11.125Z,42.93
2022-08-26T11:52:37.934Z,42.37
2022-08-26T11:55:07.028Z,41.56
2022-08-26T11:57:40.736Z,42.35
2022-08-26T12:00:14.209Z,42.25
2022-08-26T12:02:42.545Z,41.57
2022-08-26T12:05:10.230Z,42.86
2022-08-26T12:07:38.252Z,42.24
2022-08-26T12:10:10.890Z,41.62
2022-08-26T12:12:42.708Z,41.53
2022-08-26T12:15:14.867Z,41.97
2022-08-26T12:17:42.660Z,41.66
2022-08-26T12:20:24.374Z,41.40
2022-08-26T12:22:51.537Z,42.42
2022-08-26T12:25:24.055Z,42.39
2022-08-26T12:27:54.029Z,41.39
2022-08-26T12:30:26.180Z,41.27
2022-08-26T12:33:21.940Z,40.47
2022-08-26T12:35:54.387Z,40.21
2022-08-26T12:38:25.216Z,39.66
2022-08-26T12:40:52.728Z,39.36
2022-08-26T12:43:39.964Z,39.25
2022-08-26T12:46:09.122Z,39.31
2022-08-26T12:48:38.957Z,39.58
2022-08-26T12:51:25.795Z,39.34
2022-08-26T12:53:54.203Z,39.29
2022-08-26T12:56:39.147Z,38.31
2022-08-26T12:59:17.894Z,36.70
2022-08-26T13:01:45.698Z,37.48
2022-08-26T13:04:36.785Z,36.65
2022-08-26T13:07:26.627Z,36.40
2022-08-26T13:09:56.284Z,36.39
2022-08-26T13:12:24.734Z,36.52
2022-08-26T13:14:51.503Z,36.39
2022-08-26T13:17:18.402Z,35.76
2022-08-26T13:19:45.196Z,35.62
2022-08-26T13:22:13.975Z,35.90
2022-08-26T13:24:42.781Z,35.66
2022-08-26T13:27:12.837Z,36.63
2022-08-26T13:29:40.057Z,35.88
2022-08-26T13:32:09.180Z,36.80
2022-08-26T13:34:37.601Z,36.96
2022-08-26T13:37:05.318Z,37.93
2022-08-26T13:39:32.149Z,36.92
2022-08-26T13:42:00.269Z,37.34
2022-08-26T13:44:27.568Z,37.63
2022-08-26T13:46:57.565Z,37.15
2022-08-26T13:49:24.320Z,38.34
2022-08-26T13:51:51.248Z,38.70
2022-08-26T13:54:18.119Z,38.47
2022-08-26T13:56:45.289Z,38.66
2022-08-26T13:59:12.121Z,38.73
2022-08-26T14:01:40.207Z,39.00
2022-08-26T14:04:07.665Z,39.17
2022-08-26T14:06:34.462Z,39.55
2022-08-26T14:09:01.385Z,39.39
2022-08-26T14:11:29.584Z,42.44
2022-08-26T14:14:06.003Z,45.48
2022-08-26T14:16:36.509Z,45.12
2022-08-26T14:19:18.461Z,42.61
2022-08-26T14:21:51.166Z,44.35
2022-08-26T14:24:18.197Z,45.80
2022-08-26T14:26:44.978Z,50.90
2022-08-26T14:29:14.694Z,62.94
2022-08-26T14:31:43.632Z,65.64
2022-08-26T14:34:13.955Z,67.81
2022-08-26T14:36:40.768Z,66.61
2022-08-26T14:39:10.505Z,66.32
2022-08-26T14:41:45.234Z,61.30
2022-08-26T14:44:24.309Z,62.06
2022-08-26T14:46:52.905Z,57.67
2022-08-26T14:49:22.331Z,59.22
2022-08-26T14:51:49.739Z,60.77
2022-08-26T14:54:18.353Z,62.08
2022-08-26T14:56:49.839Z,65.23
2022-08-26T14:59:20.622Z,69.53
2022-08-26T15:01:48.243Z,67.45
2022-08-26T15:04:16.012Z,69.28
2022-08-26T15:06:43.349Z,71.63
2022-08-26T15:09:10.567Z,72.65
2022-08-26T15:11:37.471Z,72.17
2022-08-26T15:14:04.968Z,73.42
2022-08-26T15:16:32.228Z,74.56
2022-08-26T15:19:00.626Z,74.35
2022-08-26T15:21:27.450Z,73.83
2022-08-26T15:23:54.678Z,74.17
2022-08-26T15:26:23.186Z,73.86
2022-08-26T15:28:51.256Z,74.75
2022-08-26T15:31:18.422Z,76.29
2022-08-26T15:33:45.838Z,77.15
2022-08-26T15:36:13.126Z,77.99
2022-08-26T15:38:42.612Z,78.07
2022-08-26T15:41:10.616Z,78.43
2022-08-26T15:43:38.337Z,78.96
2022-08-26T15:46:10.571Z,78.56
2022-08-26T15:48:38.531Z,78.52
2022-08-26T15:51:07.145Z,79.31
2022-08-26T15:53:35.443Z,78.25
2022-08-26T15:56:03.929Z,76.76
2022-08-26T15:58:30.766Z,75.82
2022-08-26T16:00:57.988Z,74.49
2022-08-26T16:03:25.142Z,73.98
2022-08-26T16:05:52.046Z,73.75
2022-08-26T16:08:19.586Z,73.70
2022-08-26T16:10:50.327Z,74.05
2022-08-26T16:13:20.038Z,73.16
2022-08-26T16:15:49.926Z,73.25
2022-08-26T16:18:17.285Z,73.22
2022-08-26T16:21:12.614Z,73.40
2022-08-26T16:23:38.495Z,72.40
2022-08-26T16:26:14.406Z,73.89
2022-08-26T16:28:41.379Z,74.60
2022-08-26T16:31:11.486Z,74.49
2022-08-26T16:33:38.511Z,73.87
2022-08-26T16:36:07.112Z,74.11
2022-08-26T16:38:34.643Z,73.05
2022-08-26T16:41:02.012Z,73.08
2022-08-26T16:43:29.269Z,72.55
2022-08-26T16:45:56.521Z,73.03
2022-08-26T16:48:23.996Z,72.84
2022-08-26T16:50:51.817Z,73.20
2022-08-26T16:53:19.220Z,72.28
2022-08-26T16:55:48.205Z,72.51
2022-08-26T16:58:15.465Z,74.35
2022-08-26T17:00:42.706Z,76.03
2022-08-26T17:03:10.185Z,75.42
2022-08-26T17:05:37.440Z,76.08
2022-08-26T17:08:05.246Z,76.65
2022-08-26T17:10:33.260Z,76.60
2022-08-26T17:13:00.425Z,75.83
2022-08-26T17:15:27.891Z,75.21
2022-08-26T17:17:55.570Z,76.03
2022-08-26T17:20:24.858Z,77.46
2022-08-26T17:22:54.478Z,77.80
2022-08-26T17:25:31.881Z,77.06
2022-08-26T17:27:59.658Z,77.38
2022-08-26T17:30:26.470Z,78.26
2022-08-26T17:32:54.935Z,77.74
2022-08-26T17:35:22.173Z,77.63
2022-08-26T17:37:49.719Z,76.58
2022-08-26T17:40:19.981Z,75.76
2022-08-26T17:42:48.084Z,75.22
2022-08-26T17:45:15.638Z,74.67
2022-08-26T17:47:42.721Z,75.28
2022-08-26T17:50:13.131Z,76.67
2022-08-26T17:52:41.297Z,76.24
2022-08-26T17:55:10.226Z,77.92
2022-08-26T17:57:40.823Z,77.53
2022-08-26T18:00:12.640Z,76.71
2022-08-26T18:02:40.003Z,79.44
2022-08-26T18:05:08.443Z,80.99
2022-08-26T18:07:44.033Z,82.05
2022-08-26T18:10:15.782Z,81.67
2022-08-26T18:12:43.330Z,83.13
2022-08-26T18:15:11.555Z,83.21
2022-08-26T18:17:41.868Z,83.20
2022-08-26T18:20:11.191Z,82.37
2022-08-26T18:22:38.012Z,81.04
2022-08-26T18:25:06.154Z,80.59
2022-08-26T18:27:33.189Z,80.50
2022-08-26T18:30:00.222Z,80.30
2022-08-26T18:32:27.268Z,80.19
2022-08-26T18:34:54.217Z,80.75
2022-08-26T18:37:21.153Z,79.88
2022-08-26T18:39:48.832Z,80.42
2022-08-26T18:42:15.719Z,80.06
2022-08-26T18:44:42.512Z,80.43
2022-08-26T18:47:09.468Z,80.08
2022-08-26T18:49:36.658Z,79.90
2022-08-26T18:52:04.431Z,81.05
2022-08-26T18:54:31.214Z,80.08
2022-08-26T18:56:58.716Z,79.74
2022-08-26T18:59:29.690Z,78.34
2022-08-26T19:01:58.107Z,78.62
2022-08-26T19:04:25.075Z,79.48
2022-08-26T19:06:52.831Z,78.68
2022-08-26T19:09:20.948Z,80.26
2022-08-26T19:11:49.598Z,79.84
2022-08-26T19:14:17.810Z,81.67
2022-08-26T19:16:48.173Z,81.65
2022-08-26T19:19:16.282Z,81.95
2022-08-26T19:21:43.086Z,81.95
2022-08-26T19:24:15.781Z,82.56
2022-08-26T19:26:45.450Z,82.76
2022-08-26T19:29:13.849Z,82.20
2022-08-26T19:31:42.472Z,80.64
2022-08-26T19:34:11.814Z,80.70
2022-08-26T19:36:39.495Z,79.94
2022-08-26T19:39:12.246Z,81.85
2022-08-26T19:41:40.610Z,81.68
2022-08-26T19:44:34.801Z,80.92
2022-08-26T19:47:03.814Z,81.32
2022-08-26T19:49:31.494Z,82.04
2022-08-26T19:51:58.630Z,81.72
2022-08-26T19:54:25.600Z,81.53
2022-08-26T19:56:52.466Z,83.17
2022-08-26T19:59:19.518Z,83.69
2022-08-26T20:01:46.482Z,84.71
2022-08-26T20:04:28.024Z,84.36
2022-08-26T20:06:58.693Z,84.97
2022-08-26T20:09:28.735Z,85.80
2022-08-26T20:11:56.773Z,86.01
2022-08-26T20:14:25.662Z,85.76
2022-08-26T20:16:53.185Z,85.36
2022-08-26T20:19:38.590Z,85.13
2022-08-26T20:22:06.052Z,84.88
2022-08-26T20:24:33.585Z,83.53
2022-08-26T20:27:06.772Z,81.76
2022-08-26T20:29:35.195Z,81.69
2022-08-26T20:32:02.987Z,82.66
2022-08-26T20:34:30.240Z,80.83
2022-08-26T20:36:57.356Z,83.29
2022-08-26T20:39:24.166Z,83.88
2022-08-26T20:41:51.475Z,82.64
2022-08-26T20:44:18.282Z,81.96
2022-08-26T20:46:45.526Z,81.30
2022-08-26T20:49:13.530Z,81.76
2022-08-26T20:51:41.361Z,82.33
2022-08-26T20:54:08.837Z,81.92
2022-08-26T20:56:35.821Z,82.24
2022-08-26T20:59:05.574Z,80.40
2022-08-26T21:01:34.761Z,79.93
2022-08-26T21:04:05.735Z,79.90
2022-08-26T21:06:34.023Z,80.88
2022-08-26T21:09:01.833Z,80.74
2022-08-26T21:11:29.287Z,81.09
2022-08-26T21:14:07.103Z,80.83
2022-08-26T21:16:43.540Z,81.35
2022-08-26T21:19:13.331Z,81.32
2022-08-26T21:21:41.201Z,81.55
2022-08-26T21:24:08.876Z,81.71
2022-08-26T21:26:35.974Z,81.99
2022-08-26T21:29:03.925Z,81.99
2022-08-26T21:31:32.349Z,82.17
2022-08-26T21:33:59.627Z,81.53
2022-08-26T21:36:27.100Z,81.23
2022-08-26T21:38:57.050Z,81.91
2022-08-26T21:41:25.203Z,82.10
2022-08-26T21:43:55.287Z,82.27
2022-08-26T21:46:24.865Z,82.68
2022-08-26T21:49:03.725Z,83.87
2022-08-26T21:51:35.659Z,84.15
2022-08-26T21:54:10.553Z,84.61
2022-08-26T21:56:45.209Z,85.50
2022-08-26T21:59:13.732Z,86.20
2022-08-26T22:01:40.737Z,86.80
2022-08-26T22:04:09.372Z,87.65
2022-08-26T22:06:43.358Z,88.28
2022-08-26T22:09:11.536Z,90.09
2022-08-26T22:11:38.509Z,90.87
2022-08-26T22:14:05.596Z,91.99
2022-08-26T22:16:32.474Z,92.29
2022-08-26T22:18:59.844Z,92.70
2022-08-26T22:21:28.465Z,92.86
2022-08-26T22:23:58.051Z,92.58
2022-08-26T22:26:28.168Z,92.25
2022-08-26T22:28:58.660Z,91.34
2022-08-26T22:31:37.245Z,89.98
2022-08-26T22:34:12.299Z,88.63
2022-08-26T22:36:43.889Z,88.51
2022-08-26T22:39:14.109Z,88.92
2022-08-26T22:41:43.181Z,89.55
2022-08-26T22:44:11.933Z,91.92
2022-08-26T22:46:40.352Z,91.21
2022-08-26T22:49:09.651Z,90.84
2022-08-26T22:51:36.671Z,89.40
2022-08-26T22:54:04.805Z,88.08
2022-08-26T22:56:31.903Z,88.54
2022-08-26T22:58:58.829Z,89.27
2022-08-26T23:01:25.956Z,89.69
2022-08-26T23:03:53.275Z,90.36
2022-08-26T23:06:20.059Z,91.82
2022-08-26T23:08:47.694Z,91.78
2022-08-26T23:11:15.079Z,93.93
2022-08-26T23:13:42.488Z,93.64
2022-08-26T23:16:12.503Z,92.05
2022-08-26T23:18:41.128Z,91.13
2022-08-26T23:21:08.981Z,89.89
2022-08-26T23:23:36.377Z,89.32
2022-08-26T23:26:05.923Z,89.37
2022-08-26T23:28:34.615Z,89.05
2022-08-26T23:31:01.657Z,89.71
2022-08-26T23:33:48.689Z,89.29
2022-08-26T23:36:17.690Z,88.86
2022-08-26T23:38:52.388Z,88.44
2022-08-26T23:41:22.835Z,87.14
2022-08-26T23:43:50.314Z,86.63
2022-08-26T23:46:18.488Z,86.16
2022-08-26T23:48:45.597Z,86.67
2022-08-26T23:51:31.326Z,87.18
2022-08-26T23:53:58.226Z,87.13
2022-08-26T23:56:26.754Z,87.19
2022-08-26T23:58:54.635Z,87.61
